sensor_id;sensor_type;location;lat;lon;timestamp;pressure;altitude;pressure_sealevel;temperature;humidity
57799;BME280;43626;53.866;30.298;2023-04-06T00:01:11;1024.9;;;7.3;72
57799;BME280;43626;53.866;30.298;2023-04-06T00:06:23;1024.9;;;7.2;72
57799;BME280;43626;53.866;30.298;2023-04-06T00:11:15;1024.9;;;7.2;72
57799;BME280;43626;53.866;30.298;2023-04-06T00:15:59;1024.9;;;7.2;72
57799;BME280;43626;53.866;30.298;2023-04-06T00:21:05;1024.8;;;7.2;72
57799;BME280;43626;53.866;30.298;2023-04-06T00:26:41;1024.8;;;7.2;72
57799;BME280;43626;53.866;30.298;2023-04-06T00:31:33;1024.8;;;7.2;72
57799;BME280;43626;53.866;30.298;2023-04-06T00:36:05;1024.9;;;7.2;71.9
57799;BME280;43626;53.866;30.298;2023-04-06T00:41:31;1024.8;;;7.2;71.9
57799;BME280;43626;53.866;30.298;2023-04-06T00:46:05;1024.8;;;7.2;71.8
57799;BME280;43626;53.866;30.298;2023-04-06T00:51:41;1024.8;;;7.1;71.9
57799;BME280;43626;53.866;30.298;2023-04-06T00:56:33;1024.8;;;7.1;72
57799;BME280;43626;53.866;30.298;2023-04-06T01:00:59;1024.7;;;7.1;71.7
57799;BME280;43626;53.866;30.298;2023-04-06T01:06:33;1024.7;;;7.1;71.6
57799;BME280;43626;53.866;30.298;2023-04-06T01:11:05;1024.7;;;7.1;71.4
57799;BME280;43626;53.866;30.298;2023-04-06T01:16:40;1024.7;;;7.1;71.6
57799;BME280;43626;53.866;30.298;2023-04-06T01:21:40;1024.7;;;7.1;71.4
57799;BME280;43626;53.866;30.298;2023-04-06T01:26:05;1024.7;;;7.1;71.6
57799;BME280;43626;53.866;30.298;2023-04-06T01:31:33;1024.7;;;7.1;71.7
57799;BME280;43626;53.866;30.298;2023-04-06T01:35:59;1024.7;;;7.1;71.8
57799;BME280;43626;53.866;30.298;2023-04-06T01:41:39;1024.7;;;7.1;71.9
57799;BME280;43626;53.866;30.298;2023-04-06T01:46:33;1024.7;;;7.1;71.7
57799;BME280;43626;53.866;30.298;2023-04-06T01:51:05;1024.7;;;7.1;71.6
57799;BME280;43626;53.866;30.298;2023-04-06T01:56:33;1024.7;;;7.1;71.5
57799;BME280;43626;53.866;30.298;2023-04-06T02:01:05;1024.7;;;7.1;71.1
57799;BME280;43626;53.866;30.298;2023-04-06T02:06:25;1024.6;;;7.1;70.9
57799;BME280;43626;53.866;30.298;2023-04-06T02:11:33;1024.7;;;7.1;70.7
57799;BME280;43626;53.866;30.298;2023-04-06T02:15:59;1024.7;;;7;70.8
57799;BME280;43626;53.866;30.298;2023-04-06T02:21:33;1024.7;;;7;70.8
57799;BME280;43626;53.866;30.298;2023-04-06T02:25:59;1024.6;;;7;71
57799;BME280;43626;53.866;30.298;2023-04-06T02:31:39;1024.6;;;7;71.1
57799;BME280;43626;53.866;30.298;2023-04-06T02:36:33;1024.6;;;7;71.2
57799;BME280;43626;53.866;30.298;2023-04-06T02:40:59;1024.6;;;7;71.3
57799;BME280;43626;53.866;30.298;2023-04-06T02:46:33;1024.7;;;7;71.3
57799;BME280;43626;53.866;30.298;2023-04-06T02:51:21;1024.7;;;7;71.3
57799;BME280;43626;53.866;30.298;2023-04-06T02:56:41;1024.7;;;7;71.2
57799;BME280;43626;53.866;30.298;2023-04-06T03:01:33;1024.8;;;7.1;71.1
57799;BME280;43626;53.866;30.298;2023-04-06T03:05:59;1024.8;;;7.1;71.2
57799;BME280;43626;53.866;30.298;2023-04-06T03:11:33;1024.8;;;7.1;71.1
57799;BME280;43626;53.866;30.298;2023-04-06T03:16:21;1024.9;;;7.1;71
57799;BME280;43626;53.866;30.298;2023-04-06T03:21:41;1024.9;;;7.1;71
57799;BME280;43626;53.866;30.298;2023-04-06T03:26:05;1024.9;;;7.1;71.1
57799;BME280;43626;53.866;30.298;2023-04-06T03:30:59;1024.9;;;7.1;71
57799;BME280;43626;53.866;30.298;2023-04-06T03:36:33;1024.9;;;7.2;70.9
57799;BME280;43626;53.866;30.298;2023-04-06T03:41:15;1025;;;7.2;70.9
57799;BME280;43626;53.866;30.298;2023-04-06T03:46:41;1025;;;7.2;70.8
57799;BME280;43626;53.866;30.298;2023-04-06T03:50:59;1025;;;7.2;70.6
57799;BME280;43626;53.866;30.298;2023-04-06T03:56:05;1025;;;7.2;70.4
57799;BME280;43626;53.866;30.298;2023-04-06T04:01:31;1025;;;7.2;70.3
57799;BME280;43626;53.866;30.298;2023-04-06T04:05:59;1025;;;7.2;70.3
57799;BME280;43626;53.866;30.298;2023-04-06T04:11:41;1025;;;7.2;70.1
57799;BME280;43626;53.866;30.298;2023-04-06T04:16:33;1025;;;7.2;70
57799;BME280;43626;53.866;30.298;2023-04-06T04:21:05;1025;;;7.2;70.1
57799;BME280;43626;53.866;30.298;2023-04-06T04:26:33;1025.1;;;7.3;70
57799;BME280;43626;53.866;30.298;2023-04-06T04:31:15;1025.1;;;7.3;69.8
57799;BME280;43626;53.866;30.298;2023-04-06T04:36:39;1025.1;;;7.3;69.8
57799;BME280;43626;53.866;30.298;2023-04-06T04:41:21;1025.1;;;7.3;69.7
57799;BME280;43626;53.866;30.298;2023-04-06T04:45:59;1025.1;;;7.3;69.5
57799;BME280;43626;53.866;30.298;2023-04-06T04:51:31;1025.2;;;7.3;69.4
57799;BME280;43626;53.866;30.298;2023-04-06T04:55:59;1025.2;;;7.3;69.3
57799;BME280;43626;53.866;30.298;2023-04-06T05:01:39;1025.2;;;7.4;69.3
57799;BME280;43626;53.866;30.298;2023-04-06T05:05:59;1025.2;;;7.4;69.1
57799;BME280;43626;53.866;30.298;2023-04-06T05:10:59;1025.2;;;7.5;69
57799;BME280;43626;53.866;30.298;2023-04-06T05:16:33;1025.2;;;7.7;69.2
57799;BME280;43626;53.866;30.298;2023-04-06T05:20:59;1025.1;;;7.8;68.7
57799;BME280;43626;53.866;30.298;2023-04-06T05:26:41;1025.2;;;7.9;68.5
57799;BME280;43626;53.866;30.298;2023-04-06T05:31:27;1025.2;;;8;68.4
57799;BME280;43626;53.866;30.298;2023-04-06T05:35:59;1025.2;;;8;68.2
57799;BME280;43626;53.866;30.298;2023-04-06T05:41:33;1025.2;;;8.1;67.9
57799;BME280;43626;53.866;30.298;2023-04-06T05:46:15;1025.2;;;8.2;67.4
57799;BME280;43626;53.866;30.298;2023-04-06T05:51:39;1025.2;;;8.3;66.9
57799;BME280;43626;53.866;30.298;2023-04-06T05:56:21;1025.2;;;8.3;66.6
57799;BME280;43626;53.866;30.298;2023-04-06T06:00:59;1025.3;;;8.5;66.7
57799;BME280;43626;53.866;30.298;2023-04-06T06:06:31;1025.3;;;8.6;66.5
57799;BME280;43626;53.866;30.298;2023-04-06T06:11:21;1025.4;;;8.7;66.7
57799;BME280;43626;53.866;30.298;2023-04-06T06:16:39;1025.4;;;8.8;66.5
57799;BME280;43626;53.866;30.298;2023-04-06T06:21:21;1025.3;;;8.9;66.2
57799;BME280;43626;53.866;30.298;2023-04-06T06:26:23;1025.3;;;9;66.1
57799;BME280;43626;53.866;30.298;2023-04-06T06:31:31;1025.3;;;9;65.9
57799;BME280;43626;53.866;30.298;2023-04-06T06:36:21;1025.4;;;9.1;65.6
57799;BME280;43626;53.866;30.298;2023-04-06T06:41:37;1025.3;;;9.2;65
57799;BME280;43626;53.866;30.298;2023-04-06T06:45:59;1025.3;;;9.2;64.5
57799;BME280;43626;53.866;30.298;2023-04-06T06:50:59;1025.3;;;9.3;64
57799;BME280;43626;53.866;30.298;2023-04-06T06:56:31;1025.4;;;9.4;63.9
57799;BME280;43626;53.866;30.298;2023-04-06T07:01:21;1025.4;;;9.5;63.6
57799;BME280;43626;53.866;30.298;2023-04-06T07:06:39;1025.5;;;9.6;63.7
57799;BME280;43626;53.866;30.298;2023-04-06T07:11:27;1025.4;;;9.8;63.6
57799;BME280;43626;53.866;30.298;2023-04-06T07:16:05;1025.4;;;9.9;63.4
57799;BME280;43626;53.866;30.298;2023-04-06T07:21:31;1025.4;;;10;63.3
57799;BME280;43626;53.866;30.298;2023-04-06T07:26:21;1025.5;;;10.1;63
57799;BME280;43626;53.866;30.298;2023-04-06T07:31:39;1025.5;;;10.2;62.9
57799;BME280;43626;53.866;30.298;2023-04-06T07:36:21;1025.4;;;10.3;62.6
57799;BME280;43626;53.866;30.298;2023-04-06T07:41:11;1025.4;;;10.4;62
57799;BME280;43626;53.866;30.298;2023-04-06T07:46:39;1025.4;;;10.6;61.4
57799;BME280;43626;53.866;30.298;2023-04-06T07:51:01;1025.4;;;10.8;61.6
57799;BME280;43626;53.866;30.298;2023-04-06T07:56:39;1025.4;;;10.9;60.8
57799;BME280;43626;53.866;30.298;2023-04-06T08:01:05;1025.4;;;11.1;61
57799;BME280;43626;53.866;30.298;2023-04-06T08:06:05;1025.5;;;11.3;60.6
57799;BME280;43626;53.866;30.298;2023-04-06T08:11:31;1025.4;;;11.5;60.6
57799;BME280;43626;53.866;30.298;2023-04-06T08:16:19;1025.4;;;11.6;60.2
57799;BME280;43626;53.866;30.298;2023-04-06T08:21:23;1025.3;;;11.7;60.1
57799;BME280;43626;53.866;30.298;2023-04-06T08:26:19;1025.3;;;11.8;59.7
57799;BME280;43626;53.866;30.298;2023-04-06T08:31:05;1025.4;;;11.8;59.5
57799;BME280;43626;53.866;30.298;2023-04-06T08:36:00;1025.3;;;11.8;59.2
57799;BME280;43626;53.866;30.298;2023-04-06T08:40:59;1025.3;;;11.9;58.7
57799;BME280;43626;53.866;30.298;2023-04-06T08:46:37;1025.3;;;11.9;58.3
57799;BME280;43626;53.866;30.298;2023-04-06T08:51:26;1025.1;;;12;58.6
57799;BME280;43626;53.866;30.298;2023-04-06T08:56:22;1025.2;;;12;58.1
57799;BME280;43626;53.866;30.298;2023-04-06T09:01:29;1025.2;;;12.1;58.3
57799;BME280;43626;53.866;30.298;2023-04-06T09:06:06;1025.2;;;12.3;58.3
57799;BME280;43626;53.866;30.298;2023-04-06T09:11:42;1025.2;;;12.3;58.3
57799;BME280;43626;53.866;30.298;2023-04-06T09:16:18;1025.2;;;12.3;58.4
57799;BME280;43626;53.866;30.298;2023-04-06T09:21:21;1025.2;;;12.3;58.2
57799;BME280;43626;53.866;30.298;2023-04-06T09:26:30;1025.2;;;12.4;57.9
57799;BME280;43626;53.866;30.298;2023-04-06T09:30:59;1025.2;;;12.4;57.8
57799;BME280;43626;53.866;30.298;2023-04-06T09:36:39;1025.2;;;12.4;57.4
57799;BME280;43626;53.866;30.298;2023-04-06T09:41:24;1025.2;;;12.5;57
57799;BME280;43626;53.866;30.298;2023-04-06T09:46:00;1025.2;;;12.6;56.9
57799;BME280;43626;53.866;30.298;2023-04-06T09:51:40;1025.1;;;12.6;56.8
57799;BME280;43626;53.866;30.298;2023-04-06T09:56:06;1025.1;;;12.7;55.9
57799;BME280;43626;53.866;30.298;2023-04-06T10:01:02;1025.1;;;12.7;56.2
57799;BME280;43626;53.866;30.298;2023-04-06T10:06:21;1025;;;12.8;56.5
57799;BME280;43626;53.866;30.298;2023-04-06T10:11:15;1024.9;;;12.9;56.4
57799;BME280;43626;53.866;30.298;2023-04-06T10:16:30;1024.9;;;13;56.3
57799;BME280;43626;53.866;30.298;2023-04-06T10:21:12;1024.7;;;13.2;56.1
57799;BME280;43626;53.866;30.298;2023-04-06T10:26:35;1024.7;;;13.3;56
57799;BME280;43626;53.866;30.298;2023-04-06T10:31:27;1024.6;;;13.4;55.2
57799;BME280;43626;53.866;30.298;2023-04-06T10:36:09;1024.6;;;13.4;54.8
57799;BME280;43626;53.866;30.298;2023-04-06T10:41:36;1024.6;;;13.5;55.1
57799;BME280;43626;53.866;30.298;2023-04-06T10:46:00;1024.6;;;13.6;54.4
57799;BME280;43626;53.866;30.298;2023-04-06T10:51:38;1024.6;;;13.7;53.5
57799;BME280;43626;53.866;30.298;2023-04-06T10:56:14;1024.5;;;13.8;53.9
57799;BME280;43626;53.866;30.298;2023-04-06T11:01:12;1024.6;;;13.9;53.7
57799;BME280;43626;53.866;30.298;2023-04-06T11:06:28;1024.6;;;14;53.7
57799;BME280;43626;53.866;30.298;2023-04-06T11:11:05;1024.5;;;14.1;53.7
57799;BME280;43626;53.866;30.298;2023-04-06T11:16:35;1024.5;;;14.2;53.5
57799;BME280;43626;53.866;30.298;2023-04-06T11:21:13;1024.5;;;14.2;53.3
57799;BME280;43626;53.866;30.298;2023-04-06T11:25:59;1024.4;;;14.3;52.9
57799;BME280;43626;53.866;30.298;2023-04-06T11:31:29;1024.4;;;14.3;52.1
57799;BME280;43626;53.866;30.298;2023-04-06T11:35:59;1024.4;;;14.4;51.4
57799;BME280;43626;53.866;30.298;2023-04-06T11:41:37;1024.4;;;14.5;51.8
57799;BME280;43626;53.866;30.298;2023-04-06T11:46:25;1024.4;;;14.5;50.4
57799;BME280;43626;53.866;30.298;2023-04-06T11:51:01;1024.4;;;14.6;50.6
57799;BME280;43626;53.866;30.298;2023-04-06T11:56:31;1024.4;;;14.7;50.7
57799;BME280;43626;53.866;30.298;2023-04-06T12:01:03;1024.4;;;14.8;50.6
57799;BME280;43626;53.866;30.298;2023-04-06T12:06:37;1024.3;;;15;50.4
57799;BME280;43626;53.866;30.298;2023-04-06T12:10:59;1024.3;;;15;50.1
57799;BME280;43626;53.866;30.298;2023-04-06T12:15:59;1024.3;;;15.1;50.1
57799;BME280;43626;53.866;30.298;2023-04-06T12:21:30;1024.3;;;15.2;49.8
57799;BME280;43626;53.866;30.298;2023-04-06T12:25:59;1024.2;;;15.2;49
57799;BME280;43626;53.866;30.298;2023-04-06T12:31:23;1024.2;;;15.3;48.6
57799;BME280;43626;53.866;30.298;2023-04-06T12:36:19;1024.2;;;15.4;47.6
57799;BME280;43626;53.866;30.298;2023-04-06T12:41:06;1024.2;;;15.5;46.9
57799;BME280;43626;53.866;30.298;2023-04-06T12:46:26;1024.2;;;15.5;47.1
57799;BME280;43626;53.866;30.298;2023-04-06T12:51:13;1024.2;;;15.5;46.7
57799;BME280;43626;53.866;30.298;2023-04-06T12:56:38;1024.1;;;15.6;46.9
57799;BME280;43626;53.866;30.298;2023-04-06T13:01:19;1024.1;;;15.7;47
57799;BME280;43626;53.866;30.298;2023-04-06T13:06:06;1024.1;;;15.6;47
57799;BME280;43626;53.866;30.298;2023-04-06T13:11:29;1024;;;15.5;47
57799;BME280;43626;53.866;30.298;2023-04-06T13:16:01;1024.1;;;15.5;47.2
57799;BME280;43626;53.866;30.298;2023-04-06T13:21:38;1024;;;15.6;47.1
57799;BME280;43626;53.866;30.298;2023-04-06T13:26:19;1024;;;15.6;46.5
57799;BME280;43626;53.866;30.298;2023-04-06T13:31:06;1024.1;;;15.6;46.5
57799;BME280;43626;53.866;30.298;2023-04-06T13:36:30;1024;;;15.8;46.1
57799;BME280;43626;53.866;30.298;2023-04-06T13:41:07;1024.1;;;16.1;45.1
57799;BME280;43626;53.866;30.298;2023-04-06T13:46:37;1024.1;;;16.1;44.2
57799;BME280;43626;53.866;30.298;2023-04-06T13:51:08;1024.1;;;16.3;44.6
57799;BME280;43626;53.866;30.298;2023-04-06T13:55:59;1024;;;16.4;44.5
57799;BME280;43626;53.866;30.298;2023-04-06T14:01:28;1024;;;16.6;44.3
57799;BME280;43626;53.866;30.298;2023-04-06T14:06:00;1024;;;16.7;44
57799;BME280;43626;53.866;30.298;2023-04-06T14:11:39;1024;;;16.7;43.5
57799;BME280;43626;53.866;30.298;2023-04-06T14:16:12;1024;;;16.6;43.6
57799;BME280;43626;53.866;30.298;2023-04-06T14:21:00;1024;;;16.6;43.3
57799;BME280;43626;53.866;30.298;2023-04-06T14:26:31;1024;;;16.7;42.6
57799;BME280;43626;53.866;30.298;2023-04-06T14:31:00;1024;;;16.8;42.3
57799;BME280;43626;53.866;30.298;2023-04-06T14:36:42;1024;;;16.7;42
57799;BME280;43626;53.866;30.298;2023-04-06T14:41:00;1024;;;16.6;42.2
57799;BME280;43626;53.866;30.298;2023-04-06T14:46:08;1023.9;;;16.7;42
57799;BME280;43626;53.866;30.298;2023-04-06T14:51:33;1024;;;16.6;42.3
57799;BME280;43626;53.866;30.298;2023-04-06T14:56:11;1024;;;16.5;42.3
57799;BME280;43626;53.866;30.298;2023-04-06T15:01:28;1024;;;16.5;42.3
57799;BME280;43626;53.866;30.298;2023-04-06T15:06:00;1024;;;16.4;42.2
57799;BME280;43626;53.866;30.298;2023-04-06T15:10:59;1024;;;16.4;42.2
57799;BME280;43626;53.866;30.298;2023-04-06T15:16:32;1024;;;16.4;42.2
57799;BME280;43626;53.866;30.298;2023-04-06T15:21:14;1024;;;16.4;41.8
57799;BME280;43626;53.866;30.298;2023-04-06T15:26:40;1024;;;16.3;41.5
57799;BME280;43626;53.866;30.298;2023-04-06T15:31:20;1024;;;16.3;41.8
57799;BME280;43626;53.866;30.298;2023-04-06T15:36:19;1024;;;16.2;41.7
57799;BME280;43626;53.866;30.298;2023-04-06T15:41:30;1024;;;16.1;41.8
57799;BME280;43626;53.866;30.298;2023-04-06T15:46:08;1024;;;16;42
57799;BME280;43626;53.866;30.298;2023-04-06T15:51:42;1024.1;;;16;42.1
57799;BME280;43626;53.866;30.298;2023-04-06T15:56:22;1024.1;;;15.9;42.2
57799;BME280;43626;53.866;30.298;2023-04-06T16:01:00;1024.1;;;15.9;42.1
57799;BME280;43626;53.866;30.298;2023-04-06T16:06:34;1024.1;;;16;42.1
57799;BME280;43626;53.866;30.298;2023-04-06T16:11:00;1024.2;;;16.1;42.1
57799;BME280;43626;53.866;30.298;2023-04-06T16:16:40;1024.2;;;16.1;42
57799;BME280;43626;53.866;30.298;2023-04-06T16:21:26;1024.3;;;15.9;41.9
57799;BME280;43626;53.866;30.298;2023-04-06T16:26:10;1024.3;;;15.9;41.8
57799;BME280;43626;53.866;30.298;2023-04-06T16:31:42;1024.3;;;15.6;42.3
57799;BME280;43626;53.866;30.298;2023-04-06T16:36:08;1024.4;;;15.2;43
57799;BME280;43626;53.866;30.298;2023-04-06T16:41:42;1024.4;;;14.8;43.7
57799;BME280;43626;53.866;30.298;2023-04-06T16:46:20;1024.5;;;14.6;43.9
57799;BME280;43626;53.866;30.298;2023-04-06T16:51:02;1024.5;;;14.4;44.4
57799;BME280;43626;53.866;30.298;2023-04-06T16:56:32;1024.6;;;14.2;44.8
57799;BME280;43626;53.866;30.298;2023-04-06T17:01:00;1024.6;;;14.1;44.9
57799;BME280;43626;53.866;30.298;2023-04-06T17:06:42;1024.7;;;13.9;45.2
57799;BME280;43626;53.866;30.298;2023-04-06T17:11:22;1024.7;;;13.8;45.4
57799;BME280;43626;53.866;30.298;2023-04-06T17:16:00;1024.7;;;13.7;45.9
57799;BME280;43626;53.866;30.298;2023-04-06T17:21:18;1024.8;;;13.6;46.4
57799;BME280;43626;53.866;30.298;2023-04-06T17:26:08;1024.8;;;13.4;46.6
57799;BME280;43626;53.866;30.298;2023-04-06T17:31:42;1024.9;;;13.3;46.8
57799;BME280;43626;53.866;30.298;2023-04-06T17:36:22;1024.9;;;13.3;46.8
57799;BME280;43626;53.866;30.298;2023-04-06T17:41:00;1025;;;13.2;46.9
57799;BME280;43626;53.866;30.298;2023-04-06T17:46:34;1025;;;13.2;46.9
57799;BME280;43626;53.866;30.298;2023-04-06T17:51:14;1025;;;13.2;46.9
57799;BME280;43626;53.866;30.298;2023-04-06T17:56:42;1025;;;13.1;47.1
57799;BME280;43626;53.866;30.298;2023-04-06T18:01:14;1025;;;13;47.2
57799;BME280;43626;53.866;30.298;2023-04-06T18:06:07;1025.1;;;13;47.3
57799;BME280;43626;53.866;30.298;2023-04-06T18:11:34;1025.1;;;12.9;47.4
57799;BME280;43626;53.866;30.298;2023-04-06T18:16:00;1025.1;;;12.8;47.8
57799;BME280;43626;53.866;30.298;2023-04-06T18:21:44;1025.1;;;12.7;48.2
57799;BME280;43626;53.866;30.298;2023-04-06T18:26:13;1025.1;;;12.7;48.6
57799;BME280;43626;53.866;30.298;2023-04-06T18:31:00;1025.1;;;12.6;48.7
57799;BME280;43626;53.866;30.298;2023-04-06T18:36:12;1025.1;;;12.6;49
57799;BME280;43626;53.866;30.298;2023-04-06T18:41:10;1025.2;;;12.6;48.8
57799;BME280;43626;53.866;30.298;2023-04-06T18:46:44;1025.2;;;12.5;48.8
57799;BME280;43626;53.866;30.298;2023-04-06T18:51:10;1025.2;;;12.5;48.9
57799;BME280;43626;53.866;30.298;2023-04-06T18:56:44;1025.2;;;12.4;49
57799;BME280;43626;53.866;30.298;2023-04-06T19:01:00;1025.2;;;12.4;49.2
57799;BME280;43626;53.866;30.298;2023-04-06T19:06:00;1025.2;;;12.4;49.2
57799;BME280;43626;53.866;30.298;2023-04-06T19:11:28;1025.2;;;12.3;49.4
57799;BME280;43626;53.866;30.298;2023-04-06T19:16:00;1025.2;;;12.3;49.6
57799;BME280;43626;53.866;30.298;2023-04-06T19:21:00;1025.2;;;12.2;49.6
57799;BME280;43626;53.866;30.298;2023-04-06T19:26:34;1025.2;;;12.2;49.6
57799;BME280;43626;53.866;30.298;2023-04-06T19:31:00;1025.3;;;12.2;49.7
57799;BME280;43626;53.866;30.298;2023-04-06T19:36:44;1025.3;;;12.2;49.8
57799;BME280;43626;53.866;30.298;2023-04-06T19:41:10;1025.3;;;12.2;49.8
57799;BME280;43626;53.866;30.298;2023-04-06T19:46:00;1025.3;;;12.1;49.9
57799;BME280;43626;53.866;30.298;2023-04-06T19:51:32;1025.3;;;12.1;49.9
57799;BME280;43626;53.866;30.298;2023-04-06T19:56:00;1025.3;;;12.1;49.9
57799;BME280;43626;53.866;30.298;2023-04-06T20:01:42;1025.3;;;12;50
57799;BME280;43626;53.866;30.298;2023-04-06T20:06:22;1025.3;;;12;50
57799;BME280;43626;53.866;30.298;2023-04-06T20:11:44;1025.3;;;12;50
57799;BME280;43626;53.866;30.298;2023-04-06T20:16:36;1025.3;;;12;49.9
57799;BME280;43626;53.866;30.298;2023-04-06T20:21:10;1025.3;;;11.9;49.9
57799;BME280;43626;53.866;30.298;2023-04-06T20:26:44;1025.3;;;11.9;50
57799;BME280;43626;53.866;30.298;2023-04-06T20:31:24;1025.3;;;11.8;50.1
57799;BME280;43626;53.866;30.298;2023-04-06T20:36:00;1025.3;;;11.8;50
57799;BME280;43626;53.866;30.298;2023-04-06T20:41:44;1025.3;;;11.7;50
57799;BME280;43626;53.866;30.298;2023-04-06T20:46:13;1025.3;;;11.7;50.2
57799;BME280;43626;53.866;30.298;2023-04-06T20:51:28;1025.3;;;11.6;50.1
57799;BME280;43626;53.866;30.298;2023-04-06T20:56:24;1025.4;;;11.5;50.2
57799;BME280;43626;53.866;30.298;2023-04-06T21:01:28;1025.4;;;11.5;50.3
57799;BME280;43626;53.866;30.298;2023-04-06T21:06:44;1025.4;;;11.4;50.4
57799;BME280;43626;53.866;30.298;2023-04-06T21:11:10;1025.4;;;11.4;50.6
57799;BME280;43626;53.866;30.298;2023-04-06T21:16:28;1025.5;;;11.4;50.6
57799;BME280;43626;53.866;30.298;2023-04-06T21:21:14;1025.5;;;11.3;50.8
57799;BME280;43626;53.866;30.298;2023-04-06T21:26:28;1025.5;;;11.3;50.8
57799;BME280;43626;53.866;30.298;2023-04-06T21:31:44;1025.4;;;11.3;50.9
57799;BME280;43626;53.866;30.298;2023-04-06T21:36:02;1025.4;;;11.3;50.8
57799;BME280;43626;53.866;30.298;2023-04-06T21:41:28;1025.4;;;11.3;50.8
57799;BME280;43626;53.866;30.298;2023-04-06T21:46:22;1025.4;;;11.3;50.8
57799;BME280;43626;53.866;30.298;2023-04-06T21:51:28;1025.4;;;11.3;50.8
57799;BME280;43626;53.866;30.298;2023-04-06T21:56:42;1025.4;;;11.3;50.8
57799;BME280;43626;53.866;30.298;2023-04-06T22:01:10;1025.4;;;11.2;50.8
57799;BME280;43626;53.866;30.298;2023-04-06T22:06:28;1025.3;;;11.2;50.9
57799;BME280;43626;53.866;30.298;2023-04-06T22:11:24;1025.3;;;11.2;50.9
57799;BME280;43626;53.866;30.298;2023-04-06T22:16:28;1025.3;;;11.2;50.9
57799;BME280;43626;53.866;30.298;2023-04-06T22:21:44;1025.3;;;11.1;51.1
57799;BME280;43626;53.866;30.298;2023-04-06T22:26:10;1025.2;;;11.1;51.1
57799;BME280;43626;53.866;30.298;2023-04-06T22:31:28;1025.2;;;11.1;51.2
57799;BME280;43626;53.866;30.298;2023-04-06T22:36:22;1025.2;;;11.1;51.2
57799;BME280;43626;53.866;30.298;2023-04-06T22:41:28;1025.2;;;11;51.2
57799;BME280;43626;53.866;30.298;2023-04-06T22:46:44;1025.2;;;11;51.3
57799;BME280;43626;53.866;30.298;2023-04-06T22:51:00;1025.2;;;10.9;51.3
57799;BME280;43626;53.866;30.298;2023-04-06T22:56:22;1025.2;;;10.9;51.3
57799;BME280;43626;53.866;30.298;2023-04-06T23:01:36;1025.2;;;10.9;51.3
57799;BME280;43626;53.866;30.298;2023-04-06T23:06:28;1025.2;;;10.8;51.5
57799;BME280;43626;53.866;30.298;2023-04-06T23:11:44;1025.2;;;10.8;51.6
57799;BME280;43626;53.866;30.298;2023-04-06T23:16:07;1025.2;;;10.7;51.6
57799;BME280;43626;53.866;30.298;2023-04-06T23:21:28;1025.1;;;10.7;51.7
57799;BME280;43626;53.866;30.298;2023-04-06T23:26:00;1025.2;;;10.6;51.8
57799;BME280;43626;53.866;30.298;2023-04-06T23:31:44;1025.2;;;10.6;51.9
57799;BME280;43626;53.866;30.298;2023-04-06T23:36:42;1025.2;;;10.6;51.9
57799;BME280;43626;53.866;30.298;2023-04-06T23:41:16;1025.1;;;10.6;52
57799;BME280;43626;53.866;30.298;2023-04-06T23:46:28;1025.1;;;10.6;52
57799;BME280;43626;53.866;30.298;2023-04-06T23:51:00;1025.1;;;10.6;52
57799;BME280;43626;53.866;30.298;2023-04-06T23:56:28;1025;;;10.6;52.1
